sensor_id;sensor_type;location;lat;lon;timestamp;temperature;humidity
6421;DHT22;3243;50.958;7.012;2023-07-31T00:04:16;17.10;99.90
6421;DHT22;3243;50.958;7.012;2023-07-31T00:06:43;17.10;99.90
6421;DHT22;3243;50.958;7.012;2023-07-31T00:09:09;17.00;99.90
6421;DHT22;3243;50.958;7.012;2023-07-31T00:21:25;17.00;99.90
6421;DHT22;3243;50.958;7.012;2023-07-31T00:23:52;17.10;99.90
6421;DHT22;3243;50.958;7.012;2023-07-31T00:31:13;17.00;99.90
6421;DHT22;3243;50.958;7.012;2023-07-31T00:38:34;17.10;99.90
6421;DHT22;3243;50.958;7.012;2023-07-31T00:43:27;17.00;99.90
6421;DHT22;3243;50.958;7.012;2023-07-31T00:45:54;17.00;99.90
6421;DHT22;3243;50.958;7.012;2023-07-31T00:48:21;17.00;99.90
6421;DHT22;3243;50.958;7.012;2023-07-31T00:55:43;17.10;99.90
6421;DHT22;3243;50.958;7.012;2023-07-31T01:08:32;17.20;99.90
6421;DHT22;3243;50.958;7.012;2023-07-31T01:11:19;17.20;1.00
6421;DHT22;3243;50.958;7.012;2023-07-31T01:16:15;17.20;99.90
6421;DHT22;3243;50.958;7.012;2023-07-31T01:26:45;17.20;1.00
6421;DHT22;3243;50.958;7.012;2023-07-31T01:31:42;17.20;99.90
6421;DHT22;3243;50.958;7.012;2023-07-31T01:34:14;17.40;99.90
6421;DHT22;3243;50.958;7.012;2023-07-31T01:36:42;17.20;1.00
6421;DHT22;3243;50.958;7.012;2023-07-31T01:39:08;17.30;47.70
6421;DHT22;3243;50.958;7.012;2023-07-31T01:53:51;17.30;1.00
6421;DHT22;3243;50.958;7.012;2023-07-31T01:58:45;17.40;1.00
6421;DHT22;3243;50.958;7.012;2023-07-31T02:08:34;17.40;1.00
6421;DHT22;3243;50.958;7.012;2023-07-31T02:20:50;17.50;1.00
6421;DHT22;3243;50.958;7.012;2023-07-31T02:23:18;17.50;1.00
6421;DHT22;3243;50.958;7.012;2023-07-31T02:28:12;17.50;1.00
6421;DHT22;3243;50.958;7.012;2023-07-31T02:42:55;17.50;1.00
6421;DHT22;3243;50.958;7.012;2023-07-31T02:57:37;17.50;99.90
6421;DHT22;3243;50.958;7.012;2023-07-31T03:09:56;17.60;99.90
6421;DHT22;3243;50.958;7.012;2023-07-31T03:14:50;17.60;99.90
6421;DHT22;3243;50.958;7.012;2023-07-31T03:19:44;17.70;99.90
6421;DHT22;3243;50.958;7.012;2023-07-31T03:22:11;17.60;99.90
6421;DHT22;3243;50.958;7.012;2023-07-31T03:27:05;17.80;99.90
6421;DHT22;3243;50.958;7.012;2023-07-31T03:29:32;17.70;99.90
6421;DHT22;3243;50.958;7.012;2023-07-31T03:31:59;17.80;76.50
6421;DHT22;3243;50.958;7.012;2023-07-31T03:36:53;17.60;99.90
6421;DHT22;3243;50.958;7.012;2023-07-31T03:41:47;17.70;99.90
6421;DHT22;3243;50.958;7.012;2023-07-31T03:51:35;17.80;99.90
6421;DHT22;3243;50.958;7.012;2023-07-31T03:56:29;17.70;99.90
6421;DHT22;3243;50.958;7.012;2023-07-31T03:58:59;17.60;99.90
6421;DHT22;3243;50.958;7.012;2023-07-31T04:01:26;17.80;99.90
6421;DHT22;3243;50.958;7.012;2023-07-31T04:11:15;17.80;99.90
6421;DHT22;3243;50.958;7.012;2023-07-31T04:21:03;17.90;99.90
6421;DHT22;3243;50.958;7.012;2023-07-31T04:25:57;17.80;99.90
6421;DHT22;3243;50.958;7.012;2023-07-31T04:35:51;17.90;99.90
6421;DHT22;3243;50.958;7.012;2023-07-31T04:38:22;17.90;99.90
6421;DHT22;3243;50.958;7.012;2023-07-31T04:48:17;18.00;99.90
6421;DHT22;3243;50.958;7.012;2023-07-31T04:55:38;18.10;37.30
6421;DHT22;3243;50.958;7.012;2023-07-31T04:58:05;18.10;1.00
6421;DHT22;3243;50.958;7.012;2023-07-31T05:10:21;18.30;1.00
6421;DHT22;3243;50.958;7.012;2023-07-31T05:12:47;18.60;1.00
6421;DHT22;3243;50.958;7.012;2023-07-31T05:32:26;19.20;99.90
6421;DHT22;3243;50.958;7.012;2023-07-31T05:37:21;19.20;99.90
6421;DHT22;3243;50.958;7.012;2023-07-31T05:42:15;19.30;99.90
6421;DHT22;3243;50.958;7.012;2023-07-31T05:49:36;19.00;99.90
6421;DHT22;3243;50.958;7.012;2023-07-31T05:56:57;19.10;99.90
6421;DHT22;3243;50.958;7.012;2023-07-31T06:06:49;18.90;99.90
6421;DHT22;3243;50.958;7.012;2023-07-31T06:09:16;18.80;99.90
6421;DHT22;3243;50.958;7.012;2023-07-31T06:16:37;18.80;1.00
6421;DHT22;3243;50.958;7.012;2023-07-31T06:19:04;18.60;1.00
6421;DHT22;3243;50.958;7.012;2023-07-31T06:26:26;18.30;99.90
6421;DHT22;3243;50.958;7.012;2023-07-31T06:36:17;18.30;99.90
6421;DHT22;3243;50.958;7.012;2023-07-31T06:46:07;18.40;99.90
6421;DHT22;3243;50.958;7.012;2023-07-31T06:51:03;18.60;1.00
6421;DHT22;3243;50.958;7.012;2023-07-31T06:53:30;18.70;99.90
6421;DHT22;3243;50.958;7.012;2023-07-31T07:13:08;19.20;99.90
6421;DHT22;3243;50.958;7.012;2023-07-31T07:15:36;19.00;99.90
6421;DHT22;3243;50.958;7.012;2023-07-31T07:20:30;19.10;99.90
6421;DHT22;3243;50.958;7.012;2023-07-31T07:22:57;19.00;99.90
6421;DHT22;3243;50.958;7.012;2023-07-31T07:27:51;19.00;99.90
6421;DHT22;3243;50.958;7.012;2023-07-31T07:37:40;18.70;1.00
6421;DHT22;3243;50.958;7.012;2023-07-31T07:40:08;18.70;1.00
6421;DHT22;3243;50.958;7.012;2023-07-31T07:45:02;18.80;99.90
6421;DHT22;3243;50.958;7.012;2023-07-31T07:47:29;18.70;66.40
6421;DHT22;3243;50.958;7.012;2023-07-31T07:49:56;18.80;1.00
6421;DHT22;3243;50.958;7.012;2023-07-31T07:54:50;18.80;1.00
6421;DHT22;3243;50.958;7.012;2023-07-31T07:59:45;18.80;1.00
6421;DHT22;3243;50.958;7.012;2023-07-31T08:04:39;18.70;1.00
6421;DHT22;3243;50.958;7.012;2023-07-31T08:09:33;18.80;99.90
6421;DHT22;3243;50.958;7.012;2023-07-31T08:16:59;18.60;1.00
6421;DHT22;3243;50.958;7.012;2023-07-31T08:39:07;19.00;99.90
6421;DHT22;3243;50.958;7.012;2023-07-31T08:44:07;19.20;99.90
6421;DHT22;3243;50.958;7.012;2023-07-31T08:49:04;19.10;99.90
6421;DHT22;3243;50.958;7.012;2023-07-31T08:59:02;18.80;99.90
6421;DHT22;3243;50.958;7.012;2023-07-31T09:01:30;18.80;1.00
6421;DHT22;3243;50.958;7.012;2023-07-31T09:03:59;18.80;1.00
6421;DHT22;3243;50.958;7.012;2023-07-31T09:06:28;18.80;1.00
6421;DHT22;3243;50.958;7.012;2023-07-31T09:11:24;18.90;1.00
6421;DHT22;3243;50.958;7.012;2023-07-31T09:13:52;19.00;1.00
6421;DHT22;3243;50.958;7.012;2023-07-31T09:16:27;18.90;1.00
6421;DHT22;3243;50.958;7.012;2023-07-31T09:23:54;18.90;1.00
6421;DHT22;3243;50.958;7.012;2023-07-31T09:26:35;18.90;1.00
6421;DHT22;3243;50.958;7.012;2023-07-31T09:29:05;18.80;99.90
6421;DHT22;3243;50.958;7.012;2023-07-31T09:31:43;18.70;1.00
6421;DHT22;3243;50.958;7.012;2023-07-31T09:36:44;18.80;99.90
6421;DHT22;3243;50.958;7.012;2023-07-31T09:39:12;18.90;1.00
6421;DHT22;3243;50.958;7.012;2023-07-31T09:41:40;19.00;1.00
6421;DHT22;3243;50.958;7.012;2023-07-31T09:44:07;19.10;1.00
6421;DHT22;3243;50.958;7.012;2023-07-31T09:46:37;19.30;1.00
6421;DHT22;3243;50.958;7.012;2023-07-31T09:49:09;19.40;1.00
6421;DHT22;3243;50.958;7.012;2023-07-31T09:51:38;19.50;99.90
6421;DHT22;3243;50.958;7.012;2023-07-31T09:54:12;19.60;99.90
6421;DHT22;3243;50.958;7.012;2023-07-31T09:56:46;19.50;99.90
6421;DHT22;3243;50.958;7.012;2023-07-31T09:59:23;19.60;99.90
6421;DHT22;3243;50.958;7.012;2023-07-31T10:06:53;20.10;45.20
6421;DHT22;3243;50.958;7.012;2023-07-31T10:09:21;20.10;1.00
6421;DHT22;3243;50.958;7.012;2023-07-31T10:12:00;20.20;1.00
6421;DHT22;3243;50.958;7.012;2023-07-31T10:14:27;20.30;1.00
6421;DHT22;3243;50.958;7.012;2023-07-31T10:16:57;20.40;1.00
6421;DHT22;3243;50.958;7.012;2023-07-31T10:19:26;20.40;1.00
6421;DHT22;3243;50.958;7.012;2023-07-31T10:21:53;20.40;1.00
6421;DHT22;3243;50.958;7.012;2023-07-31T10:24:23;20.30;1.00
6421;DHT22;3243;50.958;7.012;2023-07-31T10:26:52;20.20;1.00
6421;DHT22;3243;50.958;7.012;2023-07-31T10:29:20;20.20;1.00
6421;DHT22;3243;50.958;7.012;2023-07-31T10:31:48;20.30;1.00
6421;DHT22;3243;50.958;7.012;2023-07-31T10:34:16;20.30;1.00
6421;DHT22;3243;50.958;7.012;2023-07-31T10:39:43;20.20;40.80
6421;DHT22;3243;50.958;7.012;2023-07-31T10:42:13;20.30;15.00
6421;DHT22;3243;50.958;7.012;2023-07-31T10:44:46;20.20;88.90
6421;DHT22;3243;50.958;7.012;2023-07-31T10:47:16;20.20;1.00
6421;DHT22;3243;50.958;7.012;2023-07-31T10:49:46;20.20;1.00
6421;DHT22;3243;50.958;7.012;2023-07-31T10:52:14;20.10;1.00
6421;DHT22;3243;50.958;7.012;2023-07-31T10:57:22;20.30;1.00
6421;DHT22;3243;50.958;7.012;2023-07-31T10:59:49;20.30;99.90
6421;DHT22;3243;50.958;7.012;2023-07-31T11:02:26;20.30;99.90
6421;DHT22;3243;50.958;7.012;2023-07-31T11:05:10;20.20;99.90
6421;DHT22;3243;50.958;7.012;2023-07-31T11:07:47;20.40;99.90
6421;DHT22;3243;50.958;7.012;2023-07-31T11:10:18;20.40;99.90
6421;DHT22;3243;50.958;7.012;2023-07-31T11:20:08;20.00;1.00
6421;DHT22;3243;50.958;7.012;2023-07-31T11:22:36;20.20;99.90
6421;DHT22;3243;50.958;7.012;2023-07-31T11:25:03;20.30;1.00
6421;DHT22;3243;50.958;7.012;2023-07-31T11:30:01;20.80;1.00
6421;DHT22;3243;50.958;7.012;2023-07-31T11:32:28;21.10;99.90
6421;DHT22;3243;50.958;7.012;2023-07-31T11:34:55;21.40;99.90
6421;DHT22;3243;50.958;7.012;2023-07-31T11:37:23;21.70;99.90
6421;DHT22;3243;50.958;7.012;2023-07-31T11:40:00;22.10;99.90
6421;DHT22;3243;50.958;7.012;2023-07-31T11:44:54;22.30;99.90
6421;DHT22;3243;50.958;7.012;2023-07-31T11:49:49;22.20;99.90
6421;DHT22;3243;50.958;7.012;2023-07-31T11:52:16;22.20;88.00
6421;DHT22;3243;50.958;7.012;2023-07-31T11:57:10;22.60;77.10
6421;DHT22;3243;50.958;7.012;2023-07-31T11:59:38;22.50;90.00
6421;DHT22;3243;50.958;7.012;2023-07-31T12:02:05;22.20;1.00
6421;DHT22;3243;50.958;7.012;2023-07-31T12:07:00;21.80;99.90
6421;DHT22;3243;50.958;7.012;2023-07-31T12:09:27;21.70;99.90
6421;DHT22;3243;50.958;7.012;2023-07-31T12:14:25;21.20;99.90
6421;DHT22;3243;50.958;7.012;2023-07-31T12:17:00;21.10;99.90
6421;DHT22;3243;50.958;7.012;2023-07-31T12:21:56;19.90;99.90
6421;DHT22;3243;50.958;7.012;2023-07-31T12:24:23;20.90;99.90
6421;DHT22;3243;50.958;7.012;2023-07-31T12:26:50;20.70;99.90
6421;DHT22;3243;50.958;7.012;2023-07-31T12:29:18;20.70;99.90
6421;DHT22;3243;50.958;7.012;2023-07-31T12:34:20;20.80;99.90
6421;DHT22;3243;50.958;7.012;2023-07-31T12:41:44;20.80;99.90
6421;DHT22;3243;50.958;7.012;2023-07-31T12:46:38;21.00;99.90
6421;DHT22;3243;50.958;7.012;2023-07-31T12:49:05;21.20;99.90
6421;DHT22;3243;50.958;7.012;2023-07-31T12:51:32;21.20;99.90
6421;DHT22;3243;50.958;7.012;2023-07-31T12:56:26;21.00;99.90
6421;DHT22;3243;50.958;7.012;2023-07-31T12:58:53;21.00;99.90
6421;DHT22;3243;50.958;7.012;2023-07-31T13:06:14;21.20;99.90
6421;DHT22;3243;50.958;7.012;2023-07-31T13:13:35;21.50;99.90
6421;DHT22;3243;50.958;7.012;2023-07-31T13:23:24;21.60;99.90
6421;DHT22;3243;50.958;7.012;2023-07-31T13:48:15;22.10;93.40
6421;DHT22;3243;50.958;7.012;2023-07-31T13:50:42;22.20;17.00
6421;DHT22;3243;50.958;7.012;2023-07-31T13:53:09;22.20;1.00
6421;DHT22;3243;50.958;7.012;2023-07-31T13:55:35;22.30;1.00
6421;DHT22;3243;50.958;7.012;2023-07-31T13:58:02;22.50;1.00
6421;DHT22;3243;50.958;7.012;2023-07-31T14:00:29;22.70;1.00
6421;DHT22;3243;50.958;7.012;2023-07-31T14:05:23;23.30;1.00
6421;DHT22;3243;50.958;7.012;2023-07-31T14:07:50;23.60;1.00
6421;DHT22;3243;50.958;7.012;2023-07-31T14:15:11;23.10;1.00
6421;DHT22;3243;50.958;7.012;2023-07-31T14:17:38;22.90;1.00
6421;DHT22;3243;50.958;7.012;2023-07-31T14:20:06;22.70;1.00
6421;DHT22;3243;50.958;7.012;2023-07-31T14:25:01;22.30;1.00
6421;DHT22;3243;50.958;7.012;2023-07-31T14:27:28;22.10;1.00
6421;DHT22;3243;50.958;7.012;2023-07-31T14:32:22;21.70;76.30
6421;DHT22;3243;50.958;7.012;2023-07-31T14:37:19;21.50;1.00
6421;DHT22;3243;50.958;7.012;2023-07-31T14:39:45;21.40;2.70
6421;DHT22;3243;50.958;7.012;2023-07-31T14:44:39;21.30;23.30
6421;DHT22;3243;50.958;7.012;2023-07-31T14:59:22;21.30;1.00
6421;DHT22;3243;50.958;7.012;2023-07-31T15:04:16;21.20;23.00
6421;DHT22;3243;50.958;7.012;2023-07-31T15:06:43;21.20;25.50
6421;DHT22;3243;50.958;7.012;2023-07-31T15:11:37;21.20;26.90
6421;DHT22;3243;50.958;7.012;2023-07-31T15:18:58;21.10;9.70
6421;DHT22;3243;50.958;7.012;2023-07-31T15:23:52;21.10;46.00
6421;DHT22;3243;50.958;7.012;2023-07-31T15:26:19;21.10;11.90
6421;DHT22;3243;50.958;7.012;2023-07-31T15:28:49;21.10;3.40
6421;DHT22;3243;50.958;7.012;2023-07-31T15:36:10;21.10;1.00
6421;DHT22;3243;50.958;7.012;2023-07-31T15:38:37;21.00;1.90
6421;DHT22;3243;50.958;7.012;2023-07-31T16:03:12;20.80;99.90
6421;DHT22;3243;50.958;7.012;2023-07-31T16:08:07;20.60;99.90
6421;DHT22;3243;50.958;7.012;2023-07-31T16:10:34;20.50;99.90
6421;DHT22;3243;50.958;7.012;2023-07-31T16:13:01;20.40;99.90
6421;DHT22;3243;50.958;7.012;2023-07-31T16:17:57;20.40;99.90
6421;DHT22;3243;50.958;7.012;2023-07-31T16:22:51;20.20;99.90
6421;DHT22;3243;50.958;7.012;2023-07-31T16:25:18;20.10;99.90
6421;DHT22;3243;50.958;7.012;2023-07-31T16:30:13;20.00;99.90
6421;DHT22;3243;50.958;7.012;2023-07-31T16:32:40;20.00;99.90
6421;DHT22;3243;50.958;7.012;2023-07-31T16:37:34;19.80;99.90
6421;DHT22;3243;50.958;7.012;2023-07-31T16:44:56;19.60;1.00
6421;DHT22;3243;50.958;7.012;2023-07-31T16:52:18;19.10;99.90
6421;DHT22;3243;50.958;7.012;2023-07-31T16:54:45;19.00;99.90
6421;DHT22;3243;50.958;7.012;2023-07-31T17:02:07;18.70;99.90
6421;DHT22;3243;50.958;7.012;2023-07-31T17:07:01;18.70;99.90
6421;DHT22;3243;50.958;7.012;2023-07-31T17:09:28;18.70;99.90
6421;DHT22;3243;50.958;7.012;2023-07-31T17:11:55;18.80;99.90
6421;DHT22;3243;50.958;7.012;2023-07-31T17:16:49;18.80;99.90
6421;DHT22;3243;50.958;7.012;2023-07-31T17:19:16;18.80;99.90
6421;DHT22;3243;50.958;7.012;2023-07-31T17:24:10;18.70;99.90
6421;DHT22;3243;50.958;7.012;2023-07-31T17:36:28;18.50;99.90
6421;DHT22;3243;50.958;7.012;2023-07-31T17:38:55;18.40;99.90
6421;DHT22;3243;50.958;7.012;2023-07-31T17:46:17;18.40;99.90
6421;DHT22;3243;50.958;7.012;2023-07-31T17:48:44;18.40;99.90
6421;DHT22;3243;50.958;7.012;2023-07-31T17:51:12;18.30;99.90
6421;DHT22;3243;50.958;7.012;2023-07-31T17:56:06;18.30;99.90
6421;DHT22;3243;50.958;7.012;2023-07-31T17:58:33;18.30;99.90
6421;DHT22;3243;50.958;7.012;2023-07-31T18:03:27;18.20;99.90
6421;DHT22;3243;50.958;7.012;2023-07-31T18:08:21;18.10;99.90
6421;DHT22;3243;50.958;7.012;2023-07-31T18:13:15;18.10;99.90
6421;DHT22;3243;50.958;7.012;2023-07-31T18:15:44;18.10;99.90
6421;DHT22;3243;50.958;7.012;2023-07-31T18:20:38;18.10;99.90
6421;DHT22;3243;50.958;7.012;2023-07-31T18:30:27;18.10;99.90
6421;DHT22;3243;50.958;7.012;2023-07-31T18:40:15;17.90;99.90
6421;DHT22;3243;50.958;7.012;2023-07-31T18:45:09;17.90;99.90
6421;DHT22;3243;50.958;7.012;2023-07-31T18:50:04;17.70;99.90
6421;DHT22;3243;50.958;7.012;2023-07-31T18:54:59;17.80;99.90
6421;DHT22;3243;50.958;7.012;2023-07-31T19:02:20;17.70;99.90
6421;DHT22;3243;50.958;7.012;2023-07-31T19:07:14;17.70;99.90
6421;DHT22;3243;50.958;7.012;2023-07-31T19:21:58;17.60;99.90
6421;DHT22;3243;50.958;7.012;2023-07-31T19:27:02;17.50;99.90
6421;DHT22;3243;50.958;7.012;2023-07-31T19:29:29;17.50;99.90
6421;DHT22;3243;50.958;7.012;2023-07-31T19:36:52;17.50;99.90
6421;DHT22;3243;50.958;7.012;2023-07-31T19:39:19;17.50;99.90
6421;DHT22;3243;50.958;7.012;2023-07-31T19:44:13;17.50;99.90
6421;DHT22;3243;50.958;7.012;2023-07-31T19:49:08;17.50;99.90
6421;DHT22;3243;50.958;7.012;2023-07-31T19:54:02;17.40;99.90
6421;DHT22;3243;50.958;7.012;2023-07-31T19:56:29;17.50;99.90
6421;DHT22;3243;50.958;7.012;2023-07-31T20:01:23;17.50;99.90
6421;DHT22;3243;50.958;7.012;2023-07-31T20:13:41;17.50;99.90
6421;DHT22;3243;50.958;7.012;2023-07-31T20:18:35;17.60;99.90
6421;DHT22;3243;50.958;7.012;2023-07-31T20:23:31;17.60;99.90
6421;DHT22;3243;50.958;7.012;2023-07-31T20:31:03;17.50;99.90
6421;DHT22;3243;50.958;7.012;2023-07-31T20:33:30;17.50;99.90
6421;DHT22;3243;50.958;7.012;2023-07-31T20:38:24;17.60;99.90
6421;DHT22;3243;50.958;7.012;2023-07-31T20:45:46;17.50;99.90
6421;DHT22;3243;50.958;7.012;2023-07-31T20:48:13;17.50;99.90
6421;DHT22;3243;50.958;7.012;2023-07-31T20:53:08;17.50;99.90
6421;DHT22;3243;50.958;7.012;2023-07-31T20:55:38;17.50;99.90
6421;DHT22;3243;50.958;7.012;2023-07-31T20:58:05;17.50;99.90
6421;DHT22;3243;50.958;7.012;2023-07-31T21:00:32;17.50;99.90
6421;DHT22;3243;50.958;7.012;2023-07-31T21:05:26;17.50;99.90
6421;DHT22;3243;50.958;7.012;2023-07-31T21:12:47;17.40;99.90
6421;DHT22;3243;50.958;7.012;2023-07-31T21:15:14;17.50;99.90
6421;DHT22;3243;50.958;7.012;2023-07-31T21:17:41;17.30;99.90
6421;DHT22;3243;50.958;7.012;2023-07-31T21:25:02;17.40;99.90
6421;DHT22;3243;50.958;7.012;2023-07-31T21:29:56;17.40;99.90
6421;DHT22;3243;50.958;7.012;2023-07-31T21:42:13;17.40;99.90
6421;DHT22;3243;50.958;7.012;2023-07-31T21:47:07;17.40;99.90
6421;DHT22;3243;50.958;7.012;2023-07-31T21:52:01;17.40;99.90
6421;DHT22;3243;50.958;7.012;2023-07-31T21:56:55;17.40;99.90
6421;DHT22;3243;50.958;7.012;2023-07-31T22:01:49;17.40;99.90
6421;DHT22;3243;50.958;7.012;2023-07-31T22:04:16;17.40;99.90
6421;DHT22;3243;50.958;7.012;2023-07-31T22:06:46;17.40;99.90
6421;DHT22;3243;50.958;7.012;2023-07-31T22:11:40;17.40;99.90
6421;DHT22;3243;50.958;7.012;2023-07-31T22:16:34;17.40;99.90
6421;DHT22;3243;50.958;7.012;2023-07-31T22:26:23;17.50;99.90
6421;DHT22;3243;50.958;7.012;2023-07-31T22:33:44;17.30;99.90
6421;DHT22;3243;50.958;7.012;2023-07-31T22:43:33;17.30;99.90
6421;DHT22;3243;50.958;7.012;2023-07-31T22:48:27;17.20;99.90
6421;DHT22;3243;50.958;7.012;2023-07-31T22:50:54;17.20;99.90
6421;DHT22;3243;50.958;7.012;2023-07-31T22:55:48;17.20;99.90
6421;DHT22;3243;50.958;7.012;2023-07-31T23:00:42;17.20;99.90
6421;DHT22;3243;50.958;7.012;2023-07-31T23:05:36;17.20;99.90
6421;DHT22;3243;50.958;7.012;2023-07-31T23:15:25;17.20;99.90
6421;DHT22;3243;50.958;7.012;2023-07-31T23:25:13;17.20;99.90
6421;DHT22;3243;50.958;7.012;2023-07-31T23:30:07;17.20;99.90
6421;DHT22;3243;50.958;7.012;2023-07-31T23:52:30;17.30;99.90
6421;DHT22;3243;50.958;7.012;2023-07-31T23:57:26;17.20;99.90
6421;DHT22;3243;50.958;7.012;2023-07-31T23:59:53;17.30;99.90
